createdAt,value
2019-05-09T00:01:18.098Z,3.92
2019-05-09T00:06:23.764Z,4.20
2019-05-09T00:11:26.744Z,3.65
2019-05-09T00:16:30.199Z,3.42
2019-05-09T00:21:53.536Z,4.20
2019-05-09T00:26:56.869Z,3.77
2019-05-09T00:32:13.563Z,4.03
2019-05-09T00:37:16.392Z,4.22
2019-05-09T00:42:19.847Z,4.25
2019-05-09T00:47:24.944Z,4.95
2019-05-09T00:52:28.399Z,3.60
2019-05-09T00:57:34.314Z,3.87
2019-05-09T01:02:37.765Z,3.47
2019-05-09T01:07:43.107Z,3.92
2019-05-09T01:12:46.405Z,3.90
2019-05-09T01:17:49.870Z,4.30
2019-05-09T01:22:54.055Z,3.62
2019-05-09T01:27:57.670Z,2.98
2019-05-09T01:33:08.291Z,2.47
2019-05-09T01:38:13.997Z,3.12
2019-05-09T01:43:16.941Z,3.45
2019-05-09T01:48:20.406Z,2.20
2019-05-09T01:53:25.500Z,3.90
2019-05-09T01:58:31.071Z,2.65
2019-05-09T02:03:34.604Z,3.10
2019-05-09T02:08:38.052Z,3.25
2019-05-09T02:13:41.510Z,3.37
2019-05-09T02:18:46.603Z,3.52
2019-05-09T02:23:50.056Z,2.67
2019-05-09T02:28:53.932Z,3.72
2019-05-09T02:33:57.458Z,3.22
2019-05-09T02:39:00.917Z,2.60
2019-05-09T02:44:04.638Z,2.47
2019-05-09T02:49:09.014Z,2.90
2019-05-09T02:54:12.626Z,3.77
2019-05-09T02:59:23.709Z,2.55
2019-05-09T03:04:28.413Z,3.85
2019-05-09T03:09:32.253Z,2.75
2019-05-09T03:14:38.319Z,2.12
2019-05-09T03:19:40.885Z,3.45
2019-05-09T03:24:44.340Z,2.80
2019-05-09T03:29:49.444Z,2.77
2019-05-09T03:34:52.891Z,3.05
2019-05-09T03:39:58.072Z,3.27
2019-05-09T03:45:01.615Z,2.75
2019-05-09T03:50:09.132Z,2.84
2019-05-09T03:55:14.659Z,2.13
2019-05-09T04:00:18.523Z,2.17
2019-05-09T04:05:21.976Z,7.33
2019-05-09T04:10:25.427Z,4.22
2019-05-09T04:15:28.879Z,4.10
2019-05-09T04:20:32.331Z,3.22
2019-05-09T04:25:37.731Z,5.30
2019-05-09T04:30:41.266Z,2.42
2019-05-09T04:35:44.727Z,2.37
2019-05-09T04:40:48.928Z,3.42
2019-05-09T04:45:54.058Z,2.27
2019-05-09T04:50:59.472Z,2.17
2019-05-09T04:56:10.331Z,2.92
2019-05-09T05:01:31.637Z,3.08
2019-05-09T05:06:35.091Z,2.67
2019-05-09T05:11:38.543Z,2.10
2019-05-09T05:16:42.007Z,3.58
2019-05-09T05:21:45.459Z,2.22
2019-05-09T05:26:48.922Z,3.08
2019-05-09T05:31:53.246Z,2.67
2019-05-09T05:36:58.188Z,1.67
2019-05-09T05:42:01.844Z,2.15
2019-05-09T05:47:07.702Z,2.20
2019-05-09T05:52:11.278Z,2.72
2019-05-09T05:57:14.727Z,2.77
2019-05-09T06:02:18.183Z,2.45
2019-05-09T06:07:21.647Z,2.45
2019-05-09T06:12:27.455Z,2.47
2019-05-09T06:17:30.285Z,1.75
2019-05-09T06:22:33.743Z,1.90
2019-05-09T06:27:37.635Z,1.65
2019-05-09T06:32:41.145Z,1.90
2019-05-09T06:37:44.598Z,2.33
2019-05-09T06:42:48.992Z,2.00
2019-05-09T06:47:52.487Z,2.45
2019-05-09T06:52:57.306Z,2.42
2019-05-09T06:58:02.521Z,1.87
2019-05-09T07:03:10.638Z,1.70
2019-05-09T07:08:15.735Z,1.72
2019-05-09T07:13:19.206Z,1.62
2019-05-09T07:18:22.656Z,2.52
2019-05-09T07:23:28.057Z,1.50
2019-05-09T07:28:31.302Z,3.85
2019-05-09T07:33:41.995Z,1.00
2019-05-09T07:38:47.617Z,4.05
2019-05-09T07:43:50.645Z,1.90
2019-05-09T07:48:57.754Z,2.25
2019-05-09T07:54:00.664Z,2.65
2019-05-09T07:59:04.122Z,4.25
2019-05-09T08:04:07.745Z,2.80
2019-05-09T08:09:11.211Z,1.25
2019-05-09T08:14:14.668Z,0.85
2019-05-09T08:19:18.220Z,3.52
2019-05-09T08:24:21.656Z,1.20
2019-05-09T08:29:25.119Z,3.08
2019-05-09T08:34:28.630Z,2.92
2019-05-09T08:39:32.043Z,6.08
2019-05-09T08:44:37.756Z,5.83
2019-05-09T08:49:49.623Z,3.50
2019-05-09T08:54:54.811Z,3.35
2019-05-09T08:59:59.072Z,4.15
2019-05-09T09:05:02.823Z,3.45
2019-05-09T09:10:08.421Z,2.85
2019-05-09T09:15:11.874Z,5.30
2019-05-09T09:20:18.007Z,3.90
2019-05-09T09:25:20.594Z,3.87
2019-05-09T09:30:25.205Z,3.13
2019-05-09T09:35:28.964Z,5.83
2019-05-09T09:40:32.424Z,3.57
2019-05-09T09:45:37.799Z,7.47
2019-05-09T09:50:41.072Z,1.82
2019-05-09T09:55:44.529Z,3.05
2019-05-09T10:00:51.261Z,3.58
2019-05-09T10:05:54.723Z,3.22
2019-05-09T10:10:59.127Z,7.15
2019-05-09T10:16:04.292Z,2.37
2019-05-09T10:21:15.053Z,2.75
2019-05-09T10:26:18.523Z,3.58
2019-05-09T10:31:21.981Z,5.25
2019-05-09T10:36:27.654Z,3.65
2019-05-09T10:41:30.623Z,4.03
2019-05-09T10:46:57.282Z,2.58
2019-05-09T10:51:58.049Z,2.58
2019-05-09T10:57:01.358Z,2.62
2019-05-09T11:02:04.811Z,4.62
2019-05-09T11:07:08.336Z,3.55
2019-05-09T11:12:11.791Z,3.42
2019-05-09T11:17:19.306Z,3.40
2019-05-09T11:22:23.445Z,3.40
2019-05-09T11:27:28.122Z,3.50
2019-05-09T11:32:30.883Z,2.75
2019-05-09T11:37:34.342Z,2.87
2019-05-09T11:42:38.232Z,4.12
2019-05-09T11:47:46.186Z,2.33
2019-05-09T11:52:49.060Z,4.03
2019-05-09T11:57:52.369Z,3.95
2019-05-09T12:02:58.166Z,1.80
2019-05-09T12:08:01.011Z,2.00
2019-05-09T12:13:04.474Z,2.70
2019-05-09T12:18:11.323Z,2.20
2019-05-09T12:23:13.183Z,2.35
2019-05-09T12:28:18.923Z,2.00
2019-05-09T12:33:21.826Z,2.62
2019-05-09T12:38:27.083Z,1.40
2019-05-09T12:43:30.489Z,2.20
2019-05-09T12:48:33.950Z,1.90
2019-05-09T12:53:39.625Z,1.57
2019-05-09T12:58:42.591Z,1.80
2019-05-09T13:03:48.253Z,2.37
2019-05-09T13:08:51.246Z,2.55
2019-05-09T13:13:54.723Z,2.45
2019-05-09T13:19:02.809Z,1.10
2019-05-09T13:24:08.318Z,7.92
2019-05-09T13:29:11.616Z,2.20
2019-05-09T13:34:15.076Z,3.08
2019-05-09T13:39:18.613Z,1.90
2019-05-09T13:44:22.076Z,4.10
2019-05-09T13:49:25.517Z,2.80
2019-05-09T13:54:28.984Z,2.80
2019-05-09T13:59:32.441Z,3.12
2019-05-09T14:04:39.160Z,1.98
2019-05-09T14:09:41.115Z,2.70
2019-05-09T14:14:45.337Z,3.20
2019-05-09T14:19:51.006Z,4.53
2019-05-09T14:24:53.967Z,1.12
2019-05-09T14:29:59.280Z,7.12
2019-05-09T14:35:03.109Z,6.43
2019-05-09T14:40:10.089Z,1.15
2019-05-09T14:45:11.886Z,1.35
2019-05-09T14:50:17.906Z,1.90
2019-05-09T14:55:20.751Z,1.90
2019-05-09T15:00:24.446Z,3.93
2019-05-09T15:05:28.058Z,2.62
2019-05-09T15:10:31.547Z,4.30
2019-05-09T15:15:35.011Z,1.55
2019-05-09T15:20:38.460Z,3.65
2019-05-09T15:25:41.928Z,2.25
2019-05-09T15:30:48.750Z,1.25
2019-05-09T15:35:50.580Z,1.12
2019-05-09T15:40:54.079Z,4.78
2019-05-09T15:46:02.036Z,2.02
2019-05-09T15:51:07.510Z,4.30
2019-05-09T15:56:10.693Z,11.97
2019-05-09T16:01:14.153Z,10.40
2019-05-09T16:06:19.892Z,14.13
2019-05-09T16:11:22.817Z,10.25
2019-05-09T16:16:28.621Z,12.10
2019-05-09T16:21:31.467Z,15.70
2019-05-09T16:26:34.926Z,11.48
2019-05-09T16:31:38.979Z,12.60
2019-05-09T16:36:42.532Z,13.53
2019-05-09T16:41:48.484Z,10.53
2019-05-09T16:46:51.615Z,15.85
2019-05-09T16:51:55.071Z,10.60
2019-05-09T16:57:00.013Z,9.15
2019-05-09T17:02:17.781Z,11.03
2019-05-09T17:07:08.932Z,8.85
2019-05-09T17:12:12.656Z,8.40
2019-05-09T17:17:17.807Z,13.83
2019-05-09T17:22:27.267Z,12.37
2019-05-09T17:27:30.704Z,6.00
2019-05-09T17:32:34.699Z,5.72
2019-05-09T17:37:38.176Z,6.12
2019-05-09T17:42:41.817Z,9.83
2019-05-09T17:47:45.279Z,5.08
2019-05-09T17:52:48.732Z,6.15
2019-05-09T17:57:52.203Z,4.37
2019-05-09T18:02:57.861Z,4.15
2019-05-09T18:08:00.847Z,3.92
2019-05-09T18:13:04.371Z,3.45
2019-05-09T18:18:07.901Z,3.58
2019-05-09T18:23:11.350Z,3.20
2019-05-09T18:28:14.877Z,3.30
2019-05-09T18:33:22.779Z,11.25
2019-05-09T18:38:32.012Z,7.00
2019-05-09T18:43:35.473Z,4.60
2019-05-09T18:48:39.104Z,7.05
2019-05-09T18:53:42.566Z,3.95
2019-05-09T18:58:46.094Z,4.42
2019-05-09T19:03:49.552Z,3.20
2019-05-09T19:08:53.029Z,4.55
2019-05-09T19:13:57.247Z,4.33
2019-05-09T19:19:18.524Z,2.27
2019-05-09T19:24:21.988Z,4.20
2019-05-09T19:29:25.531Z,3.72
2019-05-09T19:34:28.990Z,2.08
2019-05-09T19:39:32.454Z,3.72
2019-05-09T19:44:35.940Z,3.65
2019-05-09T19:49:39.422Z,2.62
2019-05-09T19:54:42.898Z,3.98
2019-05-09T19:59:46.382Z,1.57
2019-05-09T20:04:49.846Z,3.27
2019-05-09T20:09:55.135Z,9.78
2019-05-09T20:14:58.616Z,2.52
2019-05-09T20:20:02.159Z,2.67
2019-05-09T20:25:08.859Z,3.55
2019-05-09T20:30:12.891Z,1.98
2019-05-09T20:35:16.348Z,3.40
2019-05-09T20:40:20.008Z,1.87
2019-05-09T20:45:23.694Z,2.70
2019-05-09T20:50:27.346Z,1.92
2019-05-09T20:55:30.991Z,3.17
2019-05-09T21:00:34.632Z,2.17
2019-05-09T21:05:38.278Z,2.33
2019-05-09T21:10:41.916Z,5.03
2019-05-09T21:15:45.554Z,1.72
2019-05-09T21:20:49.198Z,2.05
2019-05-09T21:25:52.835Z,4.35
2019-05-09T21:30:56.474Z,2.95
2019-05-09T21:35:59.929Z,1.60
2019-05-09T21:41:03.387Z,2.95
2019-05-09T21:46:06.843Z,2.47
2019-05-09T21:51:10.303Z,2.00
2019-05-09T21:56:13.758Z,2.25
2019-05-09T22:01:18.941Z,1.67
2019-05-09T22:06:22.490Z,2.10
2019-05-09T22:11:25.949Z,2.10
2019-05-09T22:16:29.418Z,2.05
2019-05-09T22:21:32.883Z,1.45
2019-05-09T22:26:36.369Z,1.90
2019-05-09T22:31:39.845Z,5.10
2019-05-09T22:36:43.327Z,1.40
2019-05-09T22:41:46.812Z,2.70
2019-05-09T22:46:50.281Z,1.60
2019-05-09T22:51:53.749Z,1.75
2019-05-09T22:56:57.228Z,1.40
2019-05-09T23:02:06.536Z,1.47
2019-05-09T23:07:05.944Z,2.20
2019-05-09T23:12:09.455Z,1.52
2019-05-09T23:17:12.931Z,3.33
2019-05-09T23:22:16.482Z,1.22
2019-05-09T23:27:20.325Z,0.93
2019-05-09T23:32:25.442Z,1.00
2019-05-09T23:37:28.917Z,1.10
2019-05-09T23:42:32.387Z,1.60
2019-05-09T23:47:35.859Z,1.27
2019-05-09T23:52:39.328Z,1.30
2019-05-09T23:58:00.593Z,1.20
